sensor_id;sensor_type;location;lat;lon;timestamp;P1;durP1;ratioP1;P2;durP2;ratioP2
74715;SDS011;63234;37.558;127.058;2023-08-08T00:01:32;2.05;;;0.75;;
74715;SDS011;63234;37.558;127.058;2023-08-08T00:03:58;1.33;;;0.60;;
74715;SDS011;63234;37.558;127.058;2023-08-08T00:06:24;1.20;;;0.63;;
74715;SDS011;63234;37.558;127.058;2023-08-08T00:08:50;1.00;;;0.50;;
74715;SDS011;63234;37.558;127.058;2023-08-08T00:11:16;1.58;;;0.68;;
74715;SDS011;63234;37.558;127.058;2023-08-08T00:13:42;2.35;;;0.90;;
74715;SDS011;63234;37.558;127.058;2023-08-08T00:16:08;1.38;;;0.68;;
74715;SDS011;63234;37.558;127.058;2023-08-08T00:18:33;2.03;;;0.73;;
74715;SDS011;63234;37.558;127.058;2023-08-08T00:20:59;0.88;;;0.47;;
74715;SDS011;63234;37.558;127.058;2023-08-08T00:23:25;1.10;;;0.50;;
74715;SDS011;63234;37.558;127.058;2023-08-08T00:25:51;1.85;;;0.70;;
74715;SDS011;63234;37.558;127.058;2023-08-08T00:28:17;2.00;;;0.77;;
74715;SDS011;63234;37.558;127.058;2023-08-08T00:30:43;0.95;;;0.52;;
74715;SDS011;63234;37.558;127.058;2023-08-08T00:33:09;1.65;;;0.70;;
74715;SDS011;63234;37.558;127.058;2023-08-08T00:35:35;1.52;;;0.70;;
74715;SDS011;63234;37.558;127.058;2023-08-08T00:38:01;0.88;;;0.50;;
74715;SDS011;63234;37.558;127.058;2023-08-08T00:40:27;1.42;;;0.60;;
74715;SDS011;63234;37.558;127.058;2023-08-08T00:42:53;1.25;;;0.60;;
74715;SDS011;63234;37.558;127.058;2023-08-08T00:45:18;1.05;;;0.68;;
74715;SDS011;63234;37.558;127.058;2023-08-08T00:47:44;1.75;;;0.73;;
74715;SDS011;63234;37.558;127.058;2023-08-08T00:50:10;1.02;;;0.77;;
74715;SDS011;63234;37.558;127.058;2023-08-08T00:52:37;1.52;;;0.85;;
74715;SDS011;63234;37.558;127.058;2023-08-08T00:55:05;1.33;;;0.70;;
74715;SDS011;63234;37.558;127.058;2023-08-08T00:57:31;1.90;;;0.70;;
74715;SDS011;63234;37.558;127.058;2023-08-08T00:59:57;1.40;;;0.65;;
74715;SDS011;63234;37.558;127.058;2023-08-08T01:02:23;1.40;;;0.70;;
74715;SDS011;63234;37.558;127.058;2023-08-08T01:04:49;1.33;;;0.60;;
74715;SDS011;63234;37.558;127.058;2023-08-08T01:12:50;1.80;;;0.70;;
74715;SDS011;63234;37.558;127.058;2023-08-08T01:15:20;1.50;;;0.63;;
74715;SDS011;63234;37.558;127.058;2023-08-08T01:17:47;0.88;;;0.50;;
74715;SDS011;63234;37.558;127.058;2023-08-08T01:20:14;1.85;;;0.77;;
74715;SDS011;63234;37.558;127.058;2023-08-08T01:23:28;1.30;;;0.60;;
74715;SDS011;63234;37.558;127.058;2023-08-08T01:25:37;1.42;;;0.73;;
74715;SDS011;63234;37.558;127.058;2023-08-08T01:28:05;1.88;;;0.70;;
74715;SDS011;63234;37.558;127.058;2023-08-08T01:30:32;1.80;;;0.82;;
74715;SDS011;63234;37.558;127.058;2023-08-08T01:32:57;1.02;;;0.50;;
74715;SDS011;63234;37.558;127.058;2023-08-08T01:35:24;1.23;;;0.52;;
74715;SDS011;63234;37.558;127.058;2023-08-08T01:37:54;0.68;;;0.40;;
74715;SDS011;63234;37.558;127.058;2023-08-08T01:40:37;1.20;;;0.60;;
74715;SDS011;63234;37.558;127.058;2023-08-08T01:43:06;1.02;;;0.50;;
74715;SDS011;63234;37.558;127.058;2023-08-08T01:45:33;1.20;;;0.52;;
74715;SDS011;63234;37.558;127.058;2023-08-08T01:47:59;1.45;;;0.73;;
74715;SDS011;63234;37.558;127.058;2023-08-08T01:50:25;1.65;;;0.70;;
74715;SDS011;63234;37.558;127.058;2023-08-08T01:52:51;0.65;;;0.40;;
74715;SDS011;63234;37.558;127.058;2023-08-08T01:55:17;1.77;;;0.88;;
74715;SDS011;63234;37.558;127.058;2023-08-08T01:57:42;1.65;;;0.70;;
74715;SDS011;63234;37.558;127.058;2023-08-08T02:00:08;0.88;;;0.50;;
74715;SDS011;63234;37.558;127.058;2023-08-08T02:02:35;2.30;;;1.20;;
74715;SDS011;63234;37.558;127.058;2023-08-08T02:05:01;1.77;;;0.70;;
74715;SDS011;63234;37.558;127.058;2023-08-08T02:07:27;1.90;;;0.70;;
74715;SDS011;63234;37.558;127.058;2023-08-08T02:09:53;1.52;;;0.60;;
74715;SDS011;63234;37.558;127.058;2023-08-08T02:12:19;1.67;;;0.70;;
74715;SDS011;63234;37.558;127.058;2023-08-08T02:14:45;1.92;;;0.70;;
74715;SDS011;63234;37.558;127.058;2023-08-08T02:17:11;2.38;;;0.88;;
74715;SDS011;63234;37.558;127.058;2023-08-08T02:19:37;1.60;;;0.68;;
74715;SDS011;63234;37.558;127.058;2023-08-08T02:22:02;1.05;;;0.47;;
74715;SDS011;63234;37.558;127.058;2023-08-08T02:24:28;1.58;;;0.63;;
74715;SDS011;63234;37.558;127.058;2023-08-08T02:26:54;1.25;;;0.63;;
74715;SDS011;63234;37.558;127.058;2023-08-08T02:29:20;1.77;;;0.70;;
74715;SDS011;63234;37.558;127.058;2023-08-08T02:31:46;1.13;;;0.57;;
74715;SDS011;63234;37.558;127.058;2023-08-08T02:34:12;1.42;;;0.63;;
74715;SDS011;63234;37.558;127.058;2023-08-08T02:36:37;2.42;;;1.00;;
74715;SDS011;63234;37.558;127.058;2023-08-08T02:39:03;1.88;;;0.95;;
74715;SDS011;63234;37.558;127.058;2023-08-08T02:41:29;1.40;;;0.68;;
74715;SDS011;63234;37.558;127.058;2023-08-08T02:43:55;1.80;;;0.68;;
74715;SDS011;63234;37.558;127.058;2023-08-08T02:46:21;1.27;;;0.60;;
74715;SDS011;63234;37.558;127.058;2023-08-08T02:48:47;2.50;;;0.93;;
74715;SDS011;63234;37.558;127.058;2023-08-08T02:51:13;2.05;;;0.80;;
74715;SDS011;63234;37.558;127.058;2023-08-08T02:53:38;2.28;;;0.80;;
74715;SDS011;63234;37.558;127.058;2023-08-08T02:56:04;1.80;;;0.68;;
74715;SDS011;63234;37.558;127.058;2023-08-08T02:58:30;1.38;;;0.60;;
74715;SDS011;63234;37.558;127.058;2023-08-08T03:00:56;1.13;;;0.50;;
74715;SDS011;63234;37.558;127.058;2023-08-08T03:03:22;1.27;;;0.60;;
74715;SDS011;63234;37.558;127.058;2023-08-08T03:05:49;2.13;;;0.80;;
74715;SDS011;63234;37.558;127.058;2023-08-08T03:08:15;1.65;;;0.80;;
74715;SDS011;63234;37.558;127.058;2023-08-08T03:10:41;1.10;;;0.50;;
74715;SDS011;63234;37.558;127.058;2023-08-08T03:13:06;1.30;;;0.63;;
74715;SDS011;63234;37.558;127.058;2023-08-08T03:15:32;1.70;;;0.68;;
74715;SDS011;63234;37.558;127.058;2023-08-08T03:17:58;1.67;;;0.68;;
74715;SDS011;63234;37.558;127.058;2023-08-08T03:20:24;1.45;;;0.60;;
74715;SDS011;63234;37.558;127.058;2023-08-08T03:22:50;1.40;;;0.55;;
74715;SDS011;63234;37.558;127.058;2023-08-08T03:25:16;2.25;;;0.88;;
74715;SDS011;63234;37.558;127.058;2023-08-08T03:27:42;1.35;;;0.60;;
74715;SDS011;63234;37.558;127.058;2023-08-08T03:30:08;1.02;;;0.50;;
74715;SDS011;63234;37.558;127.058;2023-08-08T03:32:34;1.00;;;0.50;;
74715;SDS011;63234;37.558;127.058;2023-08-08T03:35:02;1.10;;;0.52;;
74715;SDS011;63234;37.558;127.058;2023-08-08T03:37:29;1.55;;;0.60;;
74715;SDS011;63234;37.558;127.058;2023-08-08T03:39:54;3.28;;;1.00;;
74715;SDS011;63234;37.558;127.058;2023-08-08T03:42:20;3.03;;;1.20;;
74715;SDS011;63234;37.558;127.058;2023-08-08T03:44:46;2.13;;;0.77;;
74715;SDS011;63234;37.558;127.058;2023-08-08T03:47:12;2.42;;;0.80;;
74715;SDS011;63234;37.558;127.058;2023-08-08T03:49:38;0.95;;;0.50;;
74715;SDS011;63234;37.558;127.058;2023-08-08T03:52:04;1.50;;;0.60;;
74715;SDS011;63234;37.558;127.058;2023-08-08T03:54:30;0.85;;;0.43;;
74715;SDS011;63234;37.558;127.058;2023-08-08T03:56:56;2.22;;;0.73;;
74715;SDS011;63234;37.558;127.058;2023-08-08T03:59:22;1.38;;;0.55;;
74715;SDS011;63234;37.558;127.058;2023-08-08T04:01:47;1.75;;;0.60;;
74715;SDS011;63234;37.558;127.058;2023-08-08T04:04:14;2.70;;;0.90;;
74715;SDS011;63234;37.558;127.058;2023-08-08T04:06:40;1.67;;;0.65;;
74715;SDS011;63234;37.558;127.058;2023-08-08T04:09:06;1.60;;;0.65;;
74715;SDS011;63234;37.558;127.058;2023-08-08T04:11:32;2.03;;;0.70;;
74715;SDS011;63234;37.558;127.058;2023-08-08T04:14:00;1.95;;;0.70;;
74715;SDS011;63234;37.558;127.058;2023-08-08T04:16:26;2.03;;;0.70;;
74715;SDS011;63234;37.558;127.058;2023-08-08T04:18:52;1.95;;;0.75;;
74715;SDS011;63234;37.558;127.058;2023-08-08T04:21:18;3.17;;;1.00;;
74715;SDS011;63234;37.558;127.058;2023-08-08T04:23:44;2.70;;;0.90;;
74715;SDS011;63234;37.558;127.058;2023-08-08T04:26:09;2.72;;;0.93;;
74715;SDS011;63234;37.558;127.058;2023-08-08T04:28:35;2.47;;;0.88;;
74715;SDS011;63234;37.558;127.058;2023-08-08T04:31:01;2.85;;;1.00;;
74715;SDS011;63234;37.558;127.058;2023-08-08T04:33:27;2.08;;;0.70;;
74715;SDS011;63234;37.558;127.058;2023-08-08T04:35:53;2.72;;;1.00;;
74715;SDS011;63234;37.558;127.058;2023-08-08T04:38:19;1.67;;;0.68;;
74715;SDS011;63234;37.558;127.058;2023-08-08T04:40:45;1.70;;;0.60;;
74715;SDS011;63234;37.558;127.058;2023-08-08T04:43:11;1.83;;;0.68;;
74715;SDS011;63234;37.558;127.058;2023-08-08T04:45:37;1.70;;;0.63;;
74715;SDS011;63234;37.558;127.058;2023-08-08T04:48:03;3.30;;;1.05;;
74715;SDS011;63234;37.558;127.058;2023-08-08T04:50:29;1.88;;;0.70;;
74715;SDS011;63234;37.558;127.058;2023-08-08T04:52:55;2.15;;;0.82;;
74715;SDS011;63234;37.558;127.058;2023-08-08T04:55:21;1.75;;;0.63;;
74715;SDS011;63234;37.558;127.058;2023-08-08T04:57:47;1.60;;;0.70;;
74715;SDS011;63234;37.558;127.058;2023-08-08T05:00:13;1.77;;;0.70;;
74715;SDS011;63234;37.558;127.058;2023-08-08T05:02:39;1.95;;;0.70;;
74715;SDS011;63234;37.558;127.058;2023-08-08T05:05:06;1.38;;;0.60;;
74715;SDS011;63234;37.558;127.058;2023-08-08T05:07:32;2.33;;;0.80;;
74715;SDS011;63234;37.558;127.058;2023-08-08T05:10:01;1.70;;;0.70;;
74715;SDS011;63234;37.558;127.058;2023-08-08T05:12:27;1.92;;;0.75;;
74715;SDS011;63234;37.558;127.058;2023-08-08T05:14:54;2.47;;;0.85;;
74715;SDS011;63234;37.558;127.058;2023-08-08T05:17:20;2.17;;;0.73;;
74715;SDS011;63234;37.558;127.058;2023-08-08T05:19:46;1.85;;;0.65;;
74715;SDS011;63234;37.558;127.058;2023-08-08T05:22:12;2.03;;;0.75;;
74715;SDS011;63234;37.558;127.058;2023-08-08T05:24:38;1.83;;;0.73;;
74715;SDS011;63234;37.558;127.058;2023-08-08T05:27:04;1.15;;;0.57;;
74715;SDS011;63234;37.558;127.058;2023-08-08T05:29:30;1.48;;;0.60;;
74715;SDS011;63234;37.558;127.058;2023-08-08T05:31:56;1.48;;;0.60;;
74715;SDS011;63234;37.558;127.058;2023-08-08T05:34:23;1.83;;;0.73;;
74715;SDS011;63234;37.558;127.058;2023-08-08T05:36:50;2.20;;;0.80;;
74715;SDS011;63234;37.558;127.058;2023-08-08T05:39:15;2.00;;;0.75;;
74715;SDS011;63234;37.558;127.058;2023-08-08T05:41:41;1.42;;;0.70;;
74715;SDS011;63234;37.558;127.058;2023-08-08T05:44:07;0.93;;;0.50;;
74715;SDS011;63234;37.558;127.058;2023-08-08T05:46:33;1.25;;;0.68;;
74715;SDS011;63234;37.558;127.058;2023-08-08T05:48:59;1.13;;;0.60;;
74715;SDS011;63234;37.558;127.058;2023-08-08T05:51:26;1.10;;;0.50;;
74715;SDS011;63234;37.558;127.058;2023-08-08T05:53:52;2.13;;;0.80;;
74715;SDS011;63234;37.558;127.058;2023-08-08T05:56:18;2.90;;;1.00;;
74715;SDS011;63234;37.558;127.058;2023-08-08T05:58:44;2.03;;;0.77;;
74715;SDS011;63234;37.558;127.058;2023-08-08T06:01:09;2.10;;;0.80;;
74715;SDS011;63234;37.558;127.058;2023-08-08T06:03:37;1.63;;;0.90;;
74715;SDS011;63234;37.558;127.058;2023-08-08T06:06:03;1.20;;;0.60;;
74715;SDS011;63234;37.558;127.058;2023-08-08T06:08:30;3.05;;;1.05;;
74715;SDS011;63234;37.558;127.058;2023-08-08T06:10:57;1.02;;;0.50;;
74715;SDS011;63234;37.558;127.058;2023-08-08T06:13:23;2.22;;;0.80;;
74715;SDS011;63234;37.558;127.058;2023-08-08T06:15:49;2.40;;;0.93;;
74715;SDS011;63234;37.558;127.058;2023-08-08T06:18:15;0.93;;;0.50;;
74715;SDS011;63234;37.558;127.058;2023-08-08T06:20:42;2.83;;;0.98;;
74715;SDS011;63234;37.558;127.058;2023-08-08T06:23:08;1.48;;;0.60;;
74715;SDS011;63234;37.558;127.058;2023-08-08T06:25:34;1.83;;;0.70;;
74715;SDS011;63234;37.558;127.058;2023-08-08T06:28:00;0.98;;;0.50;;
74715;SDS011;63234;37.558;127.058;2023-08-08T06:30:25;1.88;;;0.75;;
74715;SDS011;63234;37.558;127.058;2023-08-08T06:32:52;0.98;;;0.50;;
74715;SDS011;63234;37.558;127.058;2023-08-08T06:35:17;1.27;;;0.60;;
74715;SDS011;63234;37.558;127.058;2023-08-08T06:37:44;0.60;;;0.40;;
74715;SDS011;63234;37.558;127.058;2023-08-08T06:40:10;1.63;;;0.70;;
74715;SDS011;63234;37.558;127.058;2023-08-08T06:42:36;1.75;;;0.70;;
74715;SDS011;63234;37.558;127.058;2023-08-08T06:45:02;2.78;;;1.05;;
74715;SDS011;63234;37.558;127.058;2023-08-08T06:47:28;2.03;;;0.80;;
74715;SDS011;63234;37.558;127.058;2023-08-08T06:49:54;2.67;;;1.05;;
74715;SDS011;63234;37.558;127.058;2023-08-08T06:52:20;1.35;;;0.60;;
74715;SDS011;63234;37.558;127.058;2023-08-08T06:54:47;1.65;;;0.73;;
74715;SDS011;63234;37.558;127.058;2023-08-08T06:57:13;1.80;;;0.70;;
74715;SDS011;63234;37.558;127.058;2023-08-08T06:59:39;2.25;;;0.85;;
74715;SDS011;63234;37.558;127.058;2023-08-08T07:02:05;1.98;;;0.80;;
74715;SDS011;63234;37.558;127.058;2023-08-08T07:04:31;3.42;;;1.20;;
74715;SDS011;63234;37.558;127.058;2023-08-08T07:06:56;4.20;;;1.48;;
74715;SDS011;63234;37.558;127.058;2023-08-08T07:09:22;2.17;;;0.85;;
74715;SDS011;63234;37.558;127.058;2023-08-08T07:11:48;3.17;;;1.15;;
74715;SDS011;63234;37.558;127.058;2023-08-08T07:14:14;3.05;;;1.20;;
74715;SDS011;63234;37.558;127.058;2023-08-08T07:16:40;3.78;;;1.45;;
74715;SDS011;63234;37.558;127.058;2023-08-08T07:19:06;2.20;;;0.93;;
74715;SDS011;63234;37.558;127.058;2023-08-08T07:21:32;1.90;;;1.00;;
74715;SDS011;63234;37.558;127.058;2023-08-08T07:23:58;2.53;;;0.98;;
74715;SDS011;63234;37.558;127.058;2023-08-08T07:26:23;3.08;;;1.20;;
74715;SDS011;63234;37.558;127.058;2023-08-08T07:28:50;2.80;;;1.10;;
74715;SDS011;63234;37.558;127.058;2023-08-08T07:31:15;3.33;;;1.17;;
74715;SDS011;63234;37.558;127.058;2023-08-08T07:33:41;2.38;;;1.02;;
74715;SDS011;63234;37.558;127.058;2023-08-08T07:36:07;2.35;;;0.90;;
74715;SDS011;63234;37.558;127.058;2023-08-08T07:38:33;1.80;;;0.80;;
74715;SDS011;63234;37.558;127.058;2023-08-08T07:40:59;2.38;;;0.93;;
74715;SDS011;63234;37.558;127.058;2023-08-08T07:43:25;3.10;;;1.15;;
74715;SDS011;63234;37.558;127.058;2023-08-08T07:45:51;1.38;;;0.65;;
74715;SDS011;63234;37.558;127.058;2023-08-08T07:48:17;3.28;;;1.23;;
74715;SDS011;63234;37.558;127.058;2023-08-08T07:50:43;3.72;;;1.27;;
74715;SDS011;63234;37.558;127.058;2023-08-08T07:53:09;3.05;;;1.17;;
74715;SDS011;63234;37.558;127.058;2023-08-08T07:55:35;3.45;;;1.23;;
74715;SDS011;63234;37.558;127.058;2023-08-08T07:58:01;3.17;;;1.20;;
74715;SDS011;63234;37.558;127.058;2023-08-08T08:00:27;5.03;;;1.77;;
74715;SDS011;63234;37.558;127.058;2023-08-08T08:02:53;3.88;;;1.40;;
74715;SDS011;63234;37.558;127.058;2023-08-08T08:05:18;3.67;;;1.30;;
74715;SDS011;63234;37.558;127.058;2023-08-08T08:07:44;3.38;;;1.17;;
74715;SDS011;63234;37.558;127.058;2023-08-08T08:10:10;5.90;;;1.98;;
74715;SDS011;63234;37.558;127.058;2023-08-08T08:12:38;5.53;;;2.00;;
74715;SDS011;63234;37.558;127.058;2023-08-08T08:15:06;5.68;;;1.95;;
74715;SDS011;63234;37.558;127.058;2023-08-08T08:17:33;5.90;;;1.90;;
74715;SDS011;63234;37.558;127.058;2023-08-08T08:19:59;3.95;;;1.52;;
74715;SDS011;63234;37.558;127.058;2023-08-08T08:22:24;4.35;;;1.55;;
74715;SDS011;63234;37.558;127.058;2023-08-08T08:24:50;3.40;;;1.30;;
74715;SDS011;63234;37.558;127.058;2023-08-08T08:27:16;3.03;;;1.25;;
74715;SDS011;63234;37.558;127.058;2023-08-08T08:29:43;3.80;;;1.42;;
74715;SDS011;63234;37.558;127.058;2023-08-08T08:32:08;4.82;;;1.70;;
74715;SDS011;63234;37.558;127.058;2023-08-08T08:34:35;4.07;;;1.55;;
74715;SDS011;63234;37.558;127.058;2023-08-08T08:37:01;5.78;;;2.10;;
74715;SDS011;63234;37.558;127.058;2023-08-08T08:39:27;5.78;;;1.98;;
74715;SDS011;63234;37.558;127.058;2023-08-08T08:41:54;6.30;;;2.15;;
74715;SDS011;63234;37.558;127.058;2023-08-08T08:44:26;6.72;;;2.30;;
74715;SDS011;63234;37.558;127.058;2023-08-08T08:46:54;8.27;;;2.85;;
74715;SDS011;63234;37.558;127.058;2023-08-08T08:49:23;7.47;;;2.55;;
74715;SDS011;63234;37.558;127.058;2023-08-08T08:51:50;3.95;;;1.50;;
74715;SDS011;63234;37.558;127.058;2023-08-08T08:54:16;5.93;;;2.08;;
74715;SDS011;63234;37.558;127.058;2023-08-08T08:56:42;4.22;;;1.75;;
74715;SDS011;63234;37.558;127.058;2023-08-08T08:59:08;7.47;;;2.72;;
74715;SDS011;63234;37.558;127.058;2023-08-08T09:01:34;5.82;;;2.10;;
74715;SDS011;63234;37.558;127.058;2023-08-08T09:04:00;5.60;;;1.98;;
74715;SDS011;63234;37.558;127.058;2023-08-08T09:06:28;6.28;;;2.28;;
74715;SDS011;63234;37.558;127.058;2023-08-08T09:08:55;5.85;;;2.10;;
74715;SDS011;63234;37.558;127.058;2023-08-08T09:11:21;8.25;;;2.75;;
74715;SDS011;63234;37.558;127.058;2023-08-08T09:13:47;6.70;;;2.30;;
74715;SDS011;63234;37.558;127.058;2023-08-08T09:16:13;2.97;;;1.23;;
74715;SDS011;63234;37.558;127.058;2023-08-08T09:18:42;6.93;;;2.47;;
74715;SDS011;63234;37.558;127.058;2023-08-08T09:21:10;8.57;;;3.00;;
74715;SDS011;63234;37.558;127.058;2023-08-08T09:23:36;9.07;;;3.25;;
74715;SDS011;63234;37.558;127.058;2023-08-08T09:26:04;7.25;;;2.60;;
74715;SDS011;63234;37.558;127.058;2023-08-08T09:28:30;7.30;;;2.80;;
74715;SDS011;63234;37.558;127.058;2023-08-08T09:30:56;6.28;;;2.20;;
74715;SDS011;63234;37.558;127.058;2023-08-08T09:33:22;7.82;;;2.72;;
74715;SDS011;63234;37.558;127.058;2023-08-08T09:35:48;6.97;;;2.55;;
74715;SDS011;63234;37.558;127.058;2023-08-08T09:38:14;8.20;;;2.75;;
74715;SDS011;63234;37.558;127.058;2023-08-08T09:40:40;7.30;;;2.78;;
74715;SDS011;63234;37.558;127.058;2023-08-08T09:43:07;6.10;;;2.20;;
74715;SDS011;63234;37.558;127.058;2023-08-08T09:45:40;7.90;;;2.83;;
74715;SDS011;63234;37.558;127.058;2023-08-08T09:48:10;7.35;;;2.58;;
74715;SDS011;63234;37.558;127.058;2023-08-08T09:50:35;7.82;;;2.78;;
74715;SDS011;63234;37.558;127.058;2023-08-08T09:53:02;6.60;;;2.38;;
74715;SDS011;63234;37.558;127.058;2023-08-08T09:55:28;6.70;;;2.60;;
74715;SDS011;63234;37.558;127.058;2023-08-08T09:57:56;7.55;;;2.78;;
74715;SDS011;63234;37.558;127.058;2023-08-08T10:00:23;7.63;;;2.83;;
74715;SDS011;63234;37.558;127.058;2023-08-08T10:02:53;8.82;;;3.03;;
74715;SDS011;63234;37.558;127.058;2023-08-08T10:05:20;6.90;;;2.50;;
74715;SDS011;63234;37.558;127.058;2023-08-08T10:07:47;8.07;;;2.80;;
74715;SDS011;63234;37.558;127.058;2023-08-08T10:10:13;8.48;;;3.03;;
74715;SDS011;63234;37.558;127.058;2023-08-08T10:12:39;7.10;;;2.47;;
74715;SDS011;63234;37.558;127.058;2023-08-08T10:15:07;5.78;;;2.00;;
74715;SDS011;63234;37.558;127.058;2023-08-08T10:17:36;7.68;;;2.92;;
74715;SDS011;63234;37.558;127.058;2023-08-08T10:23:34;9.00;;;3.03;;
74715;SDS011;63234;37.558;127.058;2023-08-08T10:26:03;7.63;;;2.60;;
74715;SDS011;63234;37.558;127.058;2023-08-08T10:28:32;8.70;;;3.03;;
74715;SDS011;63234;37.558;127.058;2023-08-08T10:31:00;7.40;;;2.63;;
74715;SDS011;63234;37.558;127.058;2023-08-08T10:36:54;6.95;;;2.42;;
74715;SDS011;63234;37.558;127.058;2023-08-08T10:39:24;9.60;;;3.38;;
74715;SDS011;63234;37.558;127.058;2023-08-08T10:41:51;8.27;;;3.05;;
74715;SDS011;63234;37.558;127.058;2023-08-08T10:44:23;9.05;;;3.20;;
74715;SDS011;63234;37.558;127.058;2023-08-08T10:46:50;7.38;;;2.70;;
74715;SDS011;63234;37.558;127.058;2023-08-08T10:49:17;7.55;;;2.75;;
74715;SDS011;63234;37.558;127.058;2023-08-08T10:51:44;5.47;;;2.17;;
74715;SDS011;63234;37.558;127.058;2023-08-08T10:56:41;8.13;;;2.85;;
74715;SDS011;63234;37.558;127.058;2023-08-08T10:59:16;4.45;;;1.73;;
74715;SDS011;63234;37.558;127.058;2023-08-08T11:01:48;6.78;;;2.55;;
74715;SDS011;63234;37.558;127.058;2023-08-08T11:04:17;7.20;;;2.53;;
74715;SDS011;63234;37.558;127.058;2023-08-08T11:06:45;7.90;;;3.00;;
74715;SDS011;63234;37.558;127.058;2023-08-08T11:09:13;7.18;;;2.58;;
74715;SDS011;63234;37.558;127.058;2023-08-08T11:11:40;5.60;;;2.13;;
74715;SDS011;63234;37.558;127.058;2023-08-08T11:17:29;8.35;;;2.95;;
74715;SDS011;63234;37.558;127.058;2023-08-08T11:19:55;4.70;;;1.90;;
74715;SDS011;63234;37.558;127.058;2023-08-08T11:22:21;4.53;;;1.92;;
74715;SDS011;63234;37.558;127.058;2023-08-08T11:24:50;5.47;;;2.10;;
74715;SDS011;63234;37.558;127.058;2023-08-08T11:27:17;8.02;;;2.83;;
74715;SDS011;63234;37.558;127.058;2023-08-08T11:29:52;7.88;;;2.75;;
74715;SDS011;63234;37.558;127.058;2023-08-08T11:32:17;7.78;;;2.72;;
74715;SDS011;63234;37.558;127.058;2023-08-08T11:34:43;4.75;;;2.00;;
74715;SDS011;63234;37.558;127.058;2023-08-08T11:37:11;5.70;;;2.08;;
74715;SDS011;63234;37.558;127.058;2023-08-08T11:39:40;8.52;;;3.05;;
74715;SDS011;63234;37.558;127.058;2023-08-08T11:42:07;5.70;;;2.08;;
74715;SDS011;63234;37.558;127.058;2023-08-08T11:44:33;7.00;;;2.47;;
74715;SDS011;63234;37.558;127.058;2023-08-08T11:46:59;7.88;;;3.00;;
74715;SDS011;63234;37.558;127.058;2023-08-08T11:49:26;7.85;;;2.88;;
74715;SDS011;63234;37.558;127.058;2023-08-08T11:51:53;7.30;;;2.60;;
74715;SDS011;63234;37.558;127.058;2023-08-08T11:54:26;7.72;;;2.75;;
74715;SDS011;63234;37.558;127.058;2023-08-08T11:56:53;7.80;;;2.72;;
74715;SDS011;63234;37.558;127.058;2023-08-08T11:59:20;6.97;;;2.80;;
74715;SDS011;63234;37.558;127.058;2023-08-08T12:01:45;8.07;;;2.75;;
74715;SDS011;63234;37.558;127.058;2023-08-08T12:04:14;8.50;;;2.70;;
74715;SDS011;63234;37.558;127.058;2023-08-08T12:06:40;7.35;;;2.72;;
74715;SDS011;63234;37.558;127.058;2023-08-08T12:09:13;10.70;;;3.67;;
74715;SDS011;63234;37.558;127.058;2023-08-08T12:11:39;5.13;;;1.92;;
74715;SDS011;63234;37.558;127.058;2023-08-08T12:14:07;8.13;;;2.75;;
74715;SDS011;63234;37.558;127.058;2023-08-08T12:16:38;6.57;;;2.30;;
74715;SDS011;63234;37.558;127.058;2023-08-08T12:19:07;9.27;;;3.15;;
74715;SDS011;63234;37.558;127.058;2023-08-08T12:21:37;9.90;;;3.40;;
74715;SDS011;63234;37.558;127.058;2023-08-08T12:24:03;9.98;;;3.47;;
74715;SDS011;63234;37.558;127.058;2023-08-08T12:26:29;7.22;;;2.42;;
74715;SDS011;63234;37.558;127.058;2023-08-08T12:28:55;5.38;;;1.98;;
74715;SDS011;63234;37.558;127.058;2023-08-08T12:31:21;9.15;;;3.05;;
74715;SDS011;63234;37.558;127.058;2023-08-08T12:33:47;8.55;;;2.78;;
74715;SDS011;63234;37.558;127.058;2023-08-08T12:36:14;8.35;;;2.83;;
74715;SDS011;63234;37.558;127.058;2023-08-08T12:38:40;8.82;;;3.20;;
74715;SDS011;63234;37.558;127.058;2023-08-08T12:41:06;5.63;;;2.05;;
74715;SDS011;63234;37.558;127.058;2023-08-08T12:43:31;8.43;;;2.92;;
74715;SDS011;63234;37.558;127.058;2023-08-08T12:45:59;8.35;;;2.88;;
74715;SDS011;63234;37.558;127.058;2023-08-08T12:48:26;7.82;;;2.53;;
74715;SDS011;63234;37.558;127.058;2023-08-08T12:50:52;8.27;;;2.75;;
74715;SDS011;63234;37.558;127.058;2023-08-08T12:53:18;9.65;;;3.17;;
74715;SDS011;63234;37.558;127.058;2023-08-08T12:55:43;10.02;;;3.20;;
74715;SDS011;63234;37.558;127.058;2023-08-08T12:58:09;8.38;;;2.85;;
74715;SDS011;63234;37.558;127.058;2023-08-08T13:00:35;7.15;;;2.45;;
74715;SDS011;63234;37.558;127.058;2023-08-08T13:03:02;8.75;;;2.90;;
74715;SDS011;63234;37.558;127.058;2023-08-08T13:05:29;10.10;;;3.22;;
74715;SDS011;63234;37.558;127.058;2023-08-08T13:07:54;10.48;;;3.50;;
74715;SDS011;63234;37.558;127.058;2023-08-08T13:10:20;13.30;;;4.20;;
74715;SDS011;63234;37.558;127.058;2023-08-08T13:12:47;11.75;;;4.13;;
74715;SDS011;63234;37.558;127.058;2023-08-08T13:15:14;10.23;;;3.33;;
74715;SDS011;63234;37.558;127.058;2023-08-08T13:17:40;9.13;;;3.00;;
74715;SDS011;63234;37.558;127.058;2023-08-08T13:20:06;9.20;;;3.00;;
74715;SDS011;63234;37.558;127.058;2023-08-08T13:22:33;8.30;;;2.83;;
74715;SDS011;63234;37.558;127.058;2023-08-08T13:24:59;12.07;;;3.65;;
74715;SDS011;63234;37.558;127.058;2023-08-08T13:27:24;10.50;;;3.45;;
74715;SDS011;63234;37.558;127.058;2023-08-08T13:29:50;10.57;;;3.50;;
74715;SDS011;63234;37.558;127.058;2023-08-08T13:32:16;9.57;;;3.13;;
74715;SDS011;63234;37.558;127.058;2023-08-08T13:34:42;6.07;;;2.08;;
74715;SDS011;63234;37.558;127.058;2023-08-08T13:37:08;9.25;;;2.97;;
74715;SDS011;63234;37.558;127.058;2023-08-08T13:39:34;7.65;;;2.50;;
74715;SDS011;63234;37.558;127.058;2023-08-08T13:42:00;9.73;;;3.03;;
74715;SDS011;63234;37.558;127.058;2023-08-08T13:44:26;12.93;;;3.97;;
74715;SDS011;63234;37.558;127.058;2023-08-08T13:46:52;10.30;;;3.25;;
74715;SDS011;63234;37.558;127.058;2023-08-08T13:49:18;8.38;;;2.58;;
74715;SDS011;63234;37.558;127.058;2023-08-08T13:51:44;7.85;;;2.60;;
74715;SDS011;63234;37.558;127.058;2023-08-08T13:54:10;7.25;;;2.42;;
74715;SDS011;63234;37.558;127.058;2023-08-08T13:56:36;11.05;;;3.33;;
74715;SDS011;63234;37.558;127.058;2023-08-08T13:59:02;8.95;;;2.97;;
74715;SDS011;63234;37.558;127.058;2023-08-08T14:01:28;9.38;;;2.97;;
74715;SDS011;63234;37.558;127.058;2023-08-08T14:03:54;6.45;;;2.53;;
74715;SDS011;63234;37.558;127.058;2023-08-08T14:06:19;7.18;;;2.40;;
74715;SDS011;63234;37.558;127.058;2023-08-08T14:08:45;7.38;;;2.30;;
74715;SDS011;63234;37.558;127.058;2023-08-08T14:11:12;6.72;;;2.25;;
74715;SDS011;63234;37.558;127.058;2023-08-08T14:13:37;7.85;;;2.75;;
74715;SDS011;63234;37.558;127.058;2023-08-08T14:16:04;9.13;;;2.90;;
74715;SDS011;63234;37.558;127.058;2023-08-08T14:18:30;6.60;;;2.17;;
74715;SDS011;63234;37.558;127.058;2023-08-08T14:20:56;6.43;;;2.28;;
74715;SDS011;63234;37.558;127.058;2023-08-08T14:23:22;6.00;;;1.95;;
74715;SDS011;63234;37.558;127.058;2023-08-08T14:25:48;6.30;;;2.15;;
74715;SDS011;63234;37.558;127.058;2023-08-08T14:28:14;5.53;;;1.90;;
74715;SDS011;63234;37.558;127.058;2023-08-08T14:30:39;6.65;;;2.13;;
74715;SDS011;63234;37.558;127.058;2023-08-08T14:33:05;7.20;;;2.50;;
74715;SDS011;63234;37.558;127.058;2023-08-08T14:35:31;6.82;;;2.30;;